createdAt,value
2017-09-26T00:01:20.997Z,26.98
2017-09-26T00:03:49.318Z,28.28
2017-09-26T00:06:21.607Z,26.50
2017-09-26T00:08:51.027Z,29.78
2017-09-26T00:11:19.335Z,28.08
2017-09-26T00:13:47.641Z,29.20
2017-09-26T00:16:15.986Z,26.28
2017-09-26T00:18:45.689Z,27.66
2017-09-26T00:21:15.582Z,28.00
2017-09-26T00:23:44.920Z,27.90
2017-09-26T00:26:13.285Z,33.06
2017-09-26T00:28:41.635Z,32.32
2017-09-26T00:31:09.982Z,30.52
2017-09-26T00:33:38.302Z,30.56
2017-09-26T00:36:09.231Z,31.22
2017-09-26T00:38:37.544Z,28.90
2017-09-26T00:41:05.863Z,29.32
2017-09-26T00:43:34.215Z,29.04
2017-09-26T00:46:02.518Z,29.50
2017-09-26T00:48:30.861Z,28.54
2017-09-26T00:50:59.170Z,26.26
2017-09-26T00:53:27.490Z,26.60
2017-09-26T00:55:55.834Z,28.16
2017-09-26T00:58:24.138Z,26.12
2017-09-26T01:00:52.451Z,29.34
2017-09-26T01:03:21.569Z,29.46
2017-09-26T01:05:52.298Z,27.78
2017-09-26T01:08:21.362Z,25.66
2017-09-26T01:10:49.671Z,26.64
2017-09-26T01:13:18.005Z,25.36
2017-09-26T01:15:46.319Z,27.42
2017-09-26T01:18:14.663Z,24.84
2017-09-26T01:20:42.966Z,26.18
2017-09-26T01:23:11.309Z,28.68
2017-09-26T01:25:39.614Z,27.76
2017-09-26T01:28:07.949Z,25.16
2017-09-26T01:30:36.258Z,25.14
2017-09-26T01:33:04.606Z,25.96
2017-09-26T01:35:32.914Z,28.04
2017-09-26T01:38:01.231Z,26.86
2017-09-26T01:40:29.573Z,28.72
2017-09-26T01:42:57.922Z,28.80
2017-09-26T01:45:26.233Z,31.44
2017-09-26T01:47:54.543Z,29.52
2017-09-26T01:50:22.878Z,26.68
2017-09-26T01:52:51.210Z,28.98
2017-09-26T01:55:19.526Z,26.22
2017-09-26T01:57:48.785Z,27.18
2017-09-26T02:00:17.120Z,25.92
2017-09-26T02:02:46.626Z,26.84
2017-09-26T02:05:16.433Z,26.02
2017-09-26T02:07:44.787Z,25.40
2017-09-26T02:10:13.131Z,27.08
2017-09-26T02:12:41.447Z,25.94
2017-09-26T02:15:09.802Z,29.04
2017-09-26T02:17:38.106Z,24.50
2017-09-26T02:20:06.430Z,26.06
2017-09-26T02:22:34.801Z,25.86
2017-09-26T02:25:03.119Z,27.38
2017-09-26T02:27:31.469Z,24.70
2017-09-26T02:29:59.787Z,24.70
2017-09-26T02:32:28.166Z,28.40
2017-09-26T02:34:56.486Z,25.56
2017-09-26T02:37:24.802Z,24.56
2017-09-26T02:39:53.155Z,26.10
2017-09-26T02:42:22.654Z,24.10
2017-09-26T02:44:51.922Z,24.72
2017-09-26T02:47:20.738Z,25.32
2017-09-26T02:49:49.081Z,25.66
2017-09-26T02:52:17.397Z,26.20
2017-09-26T02:54:45.780Z,24.78
2017-09-26T02:57:15.168Z,26.52
2017-09-26T02:59:44.302Z,27.24
2017-09-26T03:02:12.652Z,24.56
2017-09-26T03:04:40.967Z,25.88
2017-09-26T03:07:08.573Z,26.64
2017-09-26T03:09:36.917Z,26.06
2017-09-26T03:12:05.270Z,24.28
2017-09-26T03:14:33.633Z,28.18
2017-09-26T03:17:01.954Z,25.94
2017-09-26T03:19:30.339Z,24.48
2017-09-26T03:21:58.650Z,26.56
2017-09-26T03:24:26.962Z,24.86
2017-09-26T03:26:55.294Z,28.58
2017-09-26T03:29:23.608Z,27.60
2017-09-26T03:31:51.187Z,26.72
2017-09-26T03:34:19.498Z,26.42
2017-09-26T03:36:47.846Z,29.68
2017-09-26T03:39:16.177Z,28.98
2017-09-26T03:41:45.533Z,31.32
2017-09-26T03:44:14.898Z,29.82
2017-09-26T03:46:43.234Z,27.84
2017-09-26T03:49:11.582Z,29.96
2017-09-26T03:51:39.922Z,29.48
2017-09-26T03:54:08.230Z,27.96
2017-09-26T03:56:36.573Z,30.34
2017-09-26T03:59:04.888Z,30.02
2017-09-26T04:01:33.255Z,29.82
2017-09-26T04:04:01.627Z,27.82
2017-09-26T04:06:29.937Z,28.82
2017-09-26T04:08:58.668Z,29.34
2017-09-26T04:11:27.007Z,29.58
2017-09-26T04:13:55.318Z,30.10
2017-09-26T04:16:23.681Z,29.68
2017-09-26T04:18:53.018Z,31.34
2017-09-26T04:21:22.582Z,29.04
2017-09-26T04:23:51.782Z,30.82
2017-09-26T04:26:20.719Z,31.18
2017-09-26T04:28:49.059Z,28.14
2017-09-26T04:31:17.371Z,30.04
2017-09-26T04:33:48.835Z,30.04
2017-09-26T04:36:17.134Z,29.72
2017-09-26T04:38:46.450Z,29.68
2017-09-26T04:41:14.788Z,32.76
2017-09-26T04:43:43.100Z,27.70
2017-09-26T04:46:11.439Z,28.66
2017-09-26T04:48:39.790Z,29.22
2017-09-26T04:51:08.133Z,28.36
2017-09-26T04:53:36.488Z,27.12
2017-09-26T04:56:04.858Z,25.90
2017-09-26T04:58:32.406Z,30.52
2017-09-26T05:01:00.723Z,28.00
2017-09-26T05:03:29.024Z,27.06
2017-09-26T05:05:57.284Z,28.70
2017-09-26T05:08:25.593Z,28.48
2017-09-26T05:10:53.859Z,28.82
2017-09-26T05:13:22.230Z,29.12
2017-09-26T05:15:51.523Z,29.36
2017-09-26T05:18:19.783Z,28.86
2017-09-26T05:20:48.078Z,28.96
2017-09-26T05:23:16.363Z,30.10
2017-09-26T05:25:44.698Z,30.28
2017-09-26T05:28:12.963Z,28.92
2017-09-26T05:30:41.221Z,28.54
2017-09-26T05:33:09.523Z,30.00
2017-09-26T05:35:37.788Z,27.86
2017-09-26T05:38:06.050Z,30.96
2017-09-26T05:40:34.355Z,29.78
2017-09-26T05:43:01.875Z,29.84
2017-09-26T05:45:30.135Z,29.84
2017-09-26T05:47:58.437Z,28.14
2017-09-26T05:50:26.727Z,27.48
2017-09-26T05:52:55.034Z,26.42
2017-09-26T05:55:23.324Z,26.68
2017-09-26T05:57:52.877Z,28.66
2017-09-26T06:00:24.729Z,29.54
2017-09-26T06:02:53.019Z,30.78
2017-09-26T06:05:21.311Z,27.14
2017-09-26T06:07:49.572Z,30.30
2017-09-26T06:10:17.850Z,29.90
2017-09-26T06:12:46.140Z,30.26
2017-09-26T06:15:15.407Z,30.10
2017-09-26T06:17:44.466Z,33.30
2017-09-26T06:20:12.724Z,30.30
2017-09-26T06:22:41.015Z,29.50
2017-09-26T06:25:09.306Z,31.64
2017-09-26T06:27:37.586Z,33.32
2017-09-26T06:30:05.887Z,35.04
2017-09-26T06:32:34.139Z,33.54
2017-09-26T06:35:02.406Z,30.66
2017-09-26T06:37:30.694Z,34.88
2017-09-26T06:39:58.943Z,31.46
2017-09-26T06:42:27.230Z,30.68
2017-09-26T06:44:55.488Z,37.06
2017-09-26T06:47:23.802Z,34.26
2017-09-26T06:49:54.083Z,33.78
2017-09-26T06:52:22.802Z,34.52
2017-09-26T06:54:51.082Z,35.26
2017-09-26T06:57:19.375Z,36.10
2017-09-26T06:59:52.122Z,34.92
2017-09-26T07:02:21.400Z,41.46
2017-09-26T07:04:49.656Z,33.24
2017-09-26T07:07:19.879Z,37.56
2017-09-26T07:09:48.175Z,39.18
2017-09-26T07:12:16.432Z,40.18
2017-09-26T07:14:44.688Z,38.38
2017-09-26T07:17:12.981Z,39.50
2017-09-26T07:19:41.236Z,41.12
2017-09-26T07:22:09.507Z,41.78
2017-09-26T07:24:37.042Z,40.28
2017-09-26T07:27:05.291Z,41.26
2017-09-26T07:29:33.551Z,44.62
2017-09-26T07:32:01.855Z,46.46
2017-09-26T07:34:30.142Z,47.28
2017-09-26T07:36:58.400Z,49.18
2017-09-26T07:39:26.695Z,50.64
2017-09-26T07:41:54.959Z,47.92
2017-09-26T07:44:23.214Z,51.00
2017-09-26T07:46:52.490Z,49.90
2017-09-26T07:49:21.542Z,51.34
2017-09-26T07:51:49.812Z,52.14
2017-09-26T07:54:18.119Z,51.54
2017-09-26T07:56:46.382Z,56.74
2017-09-26T07:59:15.023Z,53.70
2017-09-26T08:01:43.334Z,53.52
2017-09-26T08:04:12.826Z,59.28
2017-09-26T08:06:41.331Z,54.70
2017-09-26T08:09:09.855Z,50.72
2017-09-26T08:11:39.141Z,53.64
2017-09-26T08:14:07.447Z,53.74
2017-09-26T08:16:34.947Z,56.32
2017-09-26T08:19:03.234Z,55.04
2017-09-26T08:21:31.538Z,47.06
2017-09-26T08:23:59.812Z,50.90
2017-09-26T08:26:28.071Z,54.20
2017-09-26T08:29:00.177Z,51.56
2017-09-26T08:31:28.459Z,50.54
2017-09-26T08:33:56.781Z,56.42
2017-09-26T08:36:25.086Z,55.68
2017-09-26T08:38:53.352Z,51.08
2017-09-26T08:41:22.723Z,53.44
2017-09-26T08:43:51.943Z,56.34
2017-09-26T08:46:20.806Z,51.80
2017-09-26T08:48:49.064Z,52.74
2017-09-26T08:51:17.335Z,56.16
2017-09-26T08:53:46.411Z,52.50
2017-09-26T08:56:14.684Z,60.12
2017-09-26T08:58:43.014Z,56.72
2017-09-26T09:01:11.282Z,53.38
2017-09-26T09:03:39.386Z,54.66
2017-09-26T09:06:07.675Z,53.30
2017-09-26T09:08:35.935Z,54.30
2017-09-26T09:11:04.223Z,53.58
2017-09-26T09:13:32.510Z,55.68
2017-09-26T09:16:00.774Z,56.82
2017-09-26T09:18:29.063Z,53.52
2017-09-26T09:20:57.318Z,56.04
2017-09-26T09:23:25.615Z,51.72
2017-09-26T09:25:53.880Z,52.14
2017-09-26T09:28:22.640Z,50.02
2017-09-26T09:30:52.213Z,49.38
2017-09-26T09:33:21.519Z,50.84
2017-09-26T09:35:51.470Z,51.58
2017-09-26T09:38:19.744Z,50.40
2017-09-26T09:40:48.063Z,49.84
2017-09-26T09:43:16.331Z,54.90
2017-09-26T09:45:44.632Z,49.08
2017-09-26T09:48:12.926Z,52.08
2017-09-26T09:50:41.188Z,49.72
2017-09-26T09:53:09.491Z,47.18
2017-09-26T09:55:37.767Z,36.54
2017-09-26T09:58:05.311Z,56.18
2017-09-26T10:00:34.586Z,58.06
2017-09-26T10:03:02.862Z,54.74
2017-09-26T10:05:31.175Z,55.40
2017-09-26T10:07:59.446Z,58.26
2017-09-26T10:10:27.743Z,58.90
2017-09-26T10:12:56.018Z,54.12
2017-09-26T10:15:25.339Z,53.50
2017-09-26T10:17:53.631Z,53.30
2017-09-26T10:20:22.499Z,50.18
2017-09-26T10:22:52.235Z,50.38
2017-09-26T10:25:21.478Z,51.10
2017-09-26T10:27:49.767Z,45.58
2017-09-26T10:30:18.067Z,47.22
2017-09-26T10:32:46.320Z,52.10
2017-09-26T10:35:15.607Z,47.00
2017-09-26T10:37:45.330Z,48.04
2017-09-26T10:40:14.335Z,44.66
2017-09-26T10:42:42.631Z,46.80
2017-09-26T10:45:10.894Z,44.64
2017-09-26T10:47:39.167Z,45.46
2017-09-26T10:50:07.455Z,43.20
2017-09-26T10:52:38.803Z,44.28
2017-09-26T10:55:07.102Z,46.04
2017-09-26T10:57:35.367Z,45.56
2017-09-26T11:00:03.698Z,42.70
2017-09-26T11:02:31.963Z,45.88
2017-09-26T11:05:00.223Z,47.16
2017-09-26T11:07:28.514Z,41.66
2017-09-26T11:09:56.772Z,45.30
2017-09-26T11:12:25.960Z,41.26
2017-09-26T11:14:54.247Z,45.92
2017-09-26T11:17:23.478Z,41.38
2017-09-26T11:19:52.271Z,41.48
2017-09-26T11:22:21.432Z,40.24
2017-09-26T11:24:49.724Z,42.76
2017-09-26T11:27:17.975Z,41.26
2017-09-26T11:29:46.273Z,42.28
2017-09-26T11:32:14.559Z,38.74
2017-09-26T11:34:42.858Z,38.98
2017-09-26T11:37:11.120Z,40.92
2017-09-26T11:39:40.847Z,40.60
2017-09-26T11:42:09.131Z,41.84
2017-09-26T11:44:36.643Z,39.62
2017-09-26T11:47:04.940Z,42.76
2017-09-26T11:49:33.214Z,40.90
2017-09-26T11:52:01.522Z,42.82
2017-09-26T11:54:29.783Z,41.48
2017-09-26T11:56:58.071Z,40.98
2017-09-26T11:59:26.331Z,40.44
2017-09-26T12:01:53.851Z,40.60
2017-09-26T12:04:23.023Z,41.74
2017-09-26T12:06:51.320Z,39.92
2017-09-26T12:09:19.588Z,38.62
2017-09-26T12:11:47.838Z,38.76
2017-09-26T12:14:16.136Z,39.30
2017-09-26T12:16:45.294Z,39.48
2017-09-26T12:19:14.253Z,41.76
2017-09-26T12:21:42.556Z,40.78
2017-09-26T12:24:10.832Z,37.12
2017-09-26T12:26:39.099Z,37.06
2017-09-26T12:29:07.399Z,40.60
2017-09-26T12:31:35.661Z,37.66
2017-09-26T12:34:03.933Z,37.76
2017-09-26T12:36:32.222Z,37.60
2017-09-26T12:39:00.511Z,34.26
2017-09-26T12:41:28.772Z,36.14
2017-09-26T12:43:57.059Z,33.52
2017-09-26T12:46:25.370Z,33.14
2017-09-26T12:48:53.635Z,35.14
2017-09-26T12:51:22.847Z,35.16
2017-09-26T12:53:50.779Z,36.84
2017-09-26T12:56:19.043Z,34.48
2017-09-26T12:58:46.855Z,35.96
2017-09-26T13:01:16.508Z,34.94
2017-09-26T13:03:45.169Z,30.80
2017-09-26T13:06:14.286Z,30.88
2017-09-26T13:08:42.566Z,32.24
2017-09-26T13:11:10.827Z,30.90
2017-09-26T13:13:39.123Z,32.50
2017-09-26T13:16:07.377Z,31.38
2017-09-26T13:18:35.694Z,32.70
2017-09-26T13:21:03.955Z,31.66
2017-09-26T13:23:32.262Z,31.32
2017-09-26T13:26:00.537Z,32.82
2017-09-26T13:28:28.831Z,31.46
2017-09-26T13:30:57.121Z,29.38
2017-09-26T13:33:25.471Z,29.80
2017-09-26T13:35:53.736Z,30.84
2017-09-26T13:38:23.099Z,27.88
2017-09-26T13:40:51.824Z,28.92
2017-09-26T13:43:20.139Z,28.12
2017-09-26T13:45:52.504Z,28.66
2017-09-26T13:48:20.807Z,29.04
2017-09-26T13:50:49.123Z,27.04
2017-09-26T13:53:17.375Z,24.94
2017-09-26T13:55:46.970Z,27.20
2017-09-26T13:58:16.199Z,25.28
2017-09-26T14:00:45.504Z,24.82
2017-09-26T14:03:13.795Z,27.12
2017-09-26T14:05:42.050Z,23.86
2017-09-26T14:08:09.595Z,24.76
2017-09-26T14:10:37.870Z,24.02
2017-09-26T14:13:09.283Z,23.06
2017-09-26T14:15:37.537Z,24.30
2017-09-26T14:18:09.247Z,23.40
2017-09-26T14:20:37.507Z,22.66
2017-09-26T14:23:09.547Z,23.28
2017-09-26T14:25:37.831Z,23.64
2017-09-26T14:28:06.159Z,22.16
2017-09-26T14:30:34.458Z,21.58
2017-09-26T14:33:09.192Z,23.70
2017-09-26T14:35:37.478Z,21.86
2017-09-26T14:38:05.742Z,21.38
2017-09-26T14:40:34.067Z,21.38
2017-09-26T14:43:02.338Z,17.64
2017-09-26T14:45:29.842Z,19.80
2017-09-26T14:47:58.138Z,18.70
2017-09-26T14:50:26.432Z,18.10
2017-09-26T14:52:54.741Z,19.92
2017-09-26T14:55:23.036Z,17.36
2017-09-26T14:57:51.307Z,17.68
2017-09-26T15:00:19.587Z,17.62
2017-09-26T15:02:47.092Z,17.58
2017-09-26T15:05:16.639Z,17.48
2017-09-26T15:07:46.123Z,17.48
2017-09-26T15:10:15.263Z,18.28
2017-09-26T15:12:46.808Z,17.92
2017-09-26T15:15:15.964Z,17.74
2017-09-26T15:17:45.230Z,17.04
2017-09-26T15:20:14.262Z,17.66
2017-09-26T15:22:42.519Z,19.26
2017-09-26T15:25:10.820Z,17.70
2017-09-26T15:27:39.092Z,16.52
2017-09-26T15:30:07.483Z,17.06
2017-09-26T15:32:35.795Z,15.32
2017-09-26T15:35:04.093Z,18.42
2017-09-26T15:37:32.383Z,16.98
2017-09-26T15:40:00.642Z,17.26
2017-09-26T15:42:28.894Z,16.30
2017-09-26T15:44:57.235Z,17.72
2017-09-26T15:47:25.491Z,17.06
2017-09-26T15:49:53.764Z,18.32
2017-09-26T15:52:22.778Z,18.58
2017-09-26T15:54:51.003Z,18.48
2017-09-26T15:57:19.355Z,17.74
2017-09-26T15:59:47.633Z,17.84
2017-09-26T16:02:17.921Z,17.24
2017-09-26T16:04:46.187Z,17.72
2017-09-26T16:07:15.311Z,19.58
2017-09-26T16:09:44.417Z,18.94
2017-09-26T16:12:13.670Z,16.34
2017-09-26T16:14:41.975Z,14.68
2017-09-26T16:17:10.306Z,12.86
2017-09-26T16:19:38.566Z,11.22
2017-09-26T16:22:23.428Z,9.40
2017-09-26T16:24:52.798Z,9.16
2017-09-26T16:27:24.291Z,7.88
2017-09-26T16:29:52.543Z,8.38
2017-09-26T16:32:20.859Z,7.34
2017-09-26T16:34:56.222Z,8.84
2017-09-26T16:37:24.476Z,8.42
2017-09-26T16:39:52.794Z,12.84
2017-09-26T16:42:22.274Z,8.18
2017-09-26T16:44:50.959Z,7.70
2017-09-26T16:47:19.216Z,8.08
2017-09-26T16:49:47.501Z,7.64
2017-09-26T16:52:15.791Z,7.86
2017-09-26T16:54:45.017Z,7.60
2017-09-26T16:57:13.312Z,7.96
2017-09-26T16:59:41.600Z,8.62
2017-09-26T17:02:09.863Z,7.60
2017-09-26T17:04:38.158Z,7.62
2017-09-26T17:07:06.424Z,8.06
2017-09-26T17:09:34.684Z,8.14
2017-09-26T17:12:02.956Z,8.02
2017-09-26T17:14:30.443Z,8.74
2017-09-26T17:16:58.730Z,9.18
2017-09-26T17:19:26.988Z,10.70
2017-09-26T17:21:55.244Z,9.62
2017-09-26T17:24:23.535Z,8.02
2017-09-26T17:26:51.710Z,8.24
2017-09-26T17:29:24.338Z,9.24
2017-09-26T17:31:52.591Z,8.22
2017-09-26T17:34:20.110Z,7.30
2017-09-26T17:36:48.366Z,8.16
2017-09-26T17:39:16.620Z,8.30
2017-09-26T17:41:45.795Z,9.38
2017-09-26T17:44:16.166Z,7.50
2017-09-26T17:46:45.007Z,7.12
2017-09-26T17:49:13.263Z,8.36
2017-09-26T17:51:41.520Z,8.10
2017-09-26T17:54:09.808Z,7.84
2017-09-26T17:56:38.089Z,8.78
2017-09-26T17:59:06.360Z,7.66
2017-09-26T18:01:34.616Z,7.14
2017-09-26T18:04:02.921Z,8.16
2017-09-26T18:06:31.179Z,8.64
2017-09-26T18:09:02.572Z,8.18
2017-09-26T18:11:30.818Z,7.58
2017-09-26T18:14:09.290Z,9.12
2017-09-26T18:16:37.540Z,8.16
2017-09-26T18:19:05.869Z,7.90
2017-09-26T18:21:34.176Z,7.76
2017-09-26T18:24:07.969Z,8.62
2017-09-26T18:26:36.270Z,9.30
2017-09-26T18:29:10.691Z,8.88
2017-09-26T18:31:38.995Z,11.90
2017-09-26T18:34:06.572Z,12.32
2017-09-26T18:36:34.866Z,13.46
2017-09-26T18:39:03.138Z,14.10
2017-09-26T18:41:31.450Z,16.44
2017-09-26T18:43:59.786Z,14.66
2017-09-26T18:46:28.044Z,13.64
2017-09-26T18:48:56.338Z,13.90
2017-09-26T18:51:24.681Z,11.50
2017-09-26T18:53:52.992Z,10.34
2017-09-26T18:56:21.790Z,9.30
2017-09-26T18:58:49.331Z,9.22
2017-09-26T19:01:17.667Z,8.66
2017-09-26T19:03:46.187Z,8.44
2017-09-26T19:06:13.746Z,8.04
2017-09-26T19:08:42.066Z,8.58
2017-09-26T19:11:10.350Z,7.26
2017-09-26T19:13:38.662Z,8.36
2017-09-26T19:16:07.006Z,7.98
2017-09-26T19:18:35.313Z,8.38
2017-09-26T19:21:03.625Z,8.04
2017-09-26T19:23:31.990Z,8.30
2017-09-26T19:26:00.290Z,8.00
2017-09-26T19:28:27.878Z,8.30
2017-09-26T19:30:56.243Z,8.00
2017-09-26T19:33:24.556Z,7.62
2017-09-26T19:35:53.339Z,8.54
2017-09-26T19:38:22.664Z,9.28
2017-09-26T19:40:51.741Z,8.68
2017-09-26T19:43:20.063Z,8.58
2017-09-26T19:45:48.434Z,8.78
2017-09-26T19:48:15.918Z,8.76
2017-09-26T19:50:45.373Z,8.48
2017-09-26T19:53:13.718Z,8.88
2017-09-26T19:55:42.051Z,8.14
2017-09-26T19:58:10.359Z,8.42
2017-09-26T20:00:38.687Z,9.08
2017-09-26T20:03:06.250Z,7.94
2017-09-26T20:05:34.614Z,9.26
2017-09-26T20:08:02.945Z,7.82
2017-09-26T20:10:31.255Z,9.02
2017-09-26T20:12:59.544Z,8.92
2017-09-26T20:15:27.918Z,8.34
2017-09-26T20:17:56.227Z,8.94
2017-09-26T20:20:24.531Z,8.78
2017-09-26T20:22:52.814Z,9.20
2017-09-26T20:25:22.411Z,10.40
2017-09-26T20:27:51.738Z,9.70
2017-09-26T20:30:20.091Z,9.46
2017-09-26T20:32:52.343Z,9.54
2017-09-26T20:35:20.634Z,9.02
2017-09-26T20:37:48.895Z,9.18
2017-09-26T20:40:17.154Z,10.34
2017-09-26T20:42:46.619Z,10.94
2017-09-26T20:45:15.491Z,9.68
2017-09-26T20:47:43.744Z,8.52
2017-09-26T20:50:12.059Z,10.08
2017-09-26T20:52:40.374Z,9.08
2017-09-26T20:55:08.631Z,9.88
2017-09-26T20:57:36.128Z,9.92
2017-09-26T21:00:04.423Z,9.06
2017-09-26T21:02:32.674Z,10.06
2017-09-26T21:05:00.919Z,9.94
2017-09-26T21:07:29.208Z,10.70
2017-09-26T21:09:57.496Z,8.46
2017-09-26T21:12:25.012Z,8.60
2017-09-26T21:14:53.290Z,10.42
2017-09-26T21:17:21.579Z,9.58
2017-09-26T21:19:49.863Z,11.52
2017-09-26T21:22:18.140Z,11.10
2017-09-26T21:24:46.434Z,11.52
2017-09-26T21:27:14.687Z,11.84
2017-09-26T21:29:42.994Z,11.94
2017-09-26T21:32:11.342Z,14.12
2017-09-26T21:34:39.608Z,15.28
2017-09-26T21:37:07.863Z,12.34
2017-09-26T21:39:36.190Z,12.44
2017-09-26T21:42:04.455Z,12.96
2017-09-26T21:44:32.715Z,12.66
2017-09-26T21:47:01.012Z,10.12
2017-09-26T21:49:29.267Z,10.94
2017-09-26T21:51:56.759Z,11.24
2017-09-26T21:54:25.059Z,10.24
2017-09-26T21:56:53.355Z,10.54
2017-09-26T21:59:21.643Z,9.58
2017-09-26T22:01:49.939Z,10.60
2017-09-26T22:04:18.218Z,10.08
2017-09-26T22:06:45.755Z,10.12
2017-09-26T22:09:15.130Z,10.48
2017-09-26T22:11:43.391Z,11.36
2017-09-26T22:14:11.763Z,10.40
2017-09-26T22:16:40.024Z,12.74
2017-09-26T22:19:08.280Z,11.16
2017-09-26T22:21:36.601Z,10.96
2017-09-26T22:24:04.860Z,10.46
2017-09-26T22:26:33.123Z,9.50
2017-09-26T22:29:01.444Z,10.70
2017-09-26T22:31:29.746Z,10.68
2017-09-26T22:33:58.005Z,11.26
2017-09-26T22:36:26.277Z,10.82
2017-09-26T22:38:53.827Z,10.82
2017-09-26T22:41:22.894Z,10.98
2017-09-26T22:43:51.795Z,11.52
2017-09-26T22:46:20.075Z,11.60
2017-09-26T22:48:48.366Z,11.46
2017-09-26T22:51:16.624Z,10.94
2017-09-26T22:53:46.149Z,12.00
2017-09-26T22:56:15.383Z,11.26
2017-09-26T22:58:43.655Z,11.98
2017-09-26T23:01:11.954Z,10.32
2017-09-26T23:03:40.210Z,11.62
2017-09-26T23:06:08.486Z,11.66
2017-09-26T23:08:36.782Z,12.96
2017-09-26T23:11:05.043Z,11.10
2017-09-26T23:13:33.359Z,13.94
2017-09-26T23:16:01.663Z,12.48
2017-09-26T23:18:29.939Z,12.46
2017-09-26T23:20:58.198Z,11.26
2017-09-26T23:23:26.511Z,13.32
2017-09-26T23:25:54.795Z,12.46
2017-09-26T23:28:23.111Z,11.80
2017-09-26T23:30:52.271Z,11.80
2017-09-26T23:33:21.056Z,11.66
2017-09-26T23:35:49.351Z,11.88
2017-09-26T23:38:17.606Z,11.70
2017-09-26T23:40:45.864Z,13.36
2017-09-26T23:43:15.558Z,13.12
2017-09-26T23:45:45.207Z,11.30
2017-09-26T23:48:14.277Z,11.88
2017-09-26T23:50:42.542Z,12.58
2017-09-26T23:53:10.799Z,11.74
2017-09-26T23:55:39.111Z,13.30
2017-09-26T23:58:07.375Z,11.24
